Time;durP1;ratioP1;P1;durP2;ratioP2;P2;SDS_P1;SDS_P2;PMS_P1;PMS_P2;Temp;Humidity;BMP_temperature;BMP_pressure;BME280_temperature;BME280_humidity;BME280_pressure;Samples;Min_cycle;Max_cycle;Signal;HPM_P1;HPM_P2
2023/12/15 00:00:44;;;;;;;17.50;9.60;;;6.00;72.60;;;;;;4949130;28;46423;-69
2023/12/15 00:03:09;;;;;;;20.57;10.60;;;6.10;72.40;;;;;;4947486;28;46479;-69
2023/12/15 00:05:35;;;;;;;17.60;10.37;;;6.00;72.30;;;;;;4946185;28;46812;-69
2023/12/15 00:08:01;;;;;;;16.97;9.47;;;6.00;72.50;;;;;;4950443;28;47192;-69
2023/12/15 00:10:26;;;;;;;16.47;10.13;;;6.00;72.60;;;;;;4953652;28;46419;-69
2023/12/15 00:12:52;;;;;;;16.93;10.90;;;6.00;72.50;;;;;;4955165;28;46448;-69
2023/12/15 00:15:17;;;;;;;17.50;10.20;;;6.00;72.40;;;;;;4951186;28;46360;-69
2023/12/15 00:17:43;;;;;;;17.60;10.00;;;6.00;72.30;;;;;;4951879;28;46487;-68
2023/12/15 00:20:09;;;;;;;19.23;9.93;;;6.10;72.30;;;;;;4953482;28;46459;-69
2023/12/15 00:22:34;;;;;;;24.27;11.30;;;6.10;72.10;;;;;;4954451;28;46721;-69
2023/12/15 00:25:00;;;;;;;19.90;10.70;;;6.10;72.10;;;;;;4950380;28;46579;-69
2023/12/15 00:27:25;;;;;;;19.20;10.43;;;6.20;71.90;;;;;;4952845;28;46541;-69
2023/12/15 00:29:51;;;;;;;20.67;11.17;;;6.20;71.70;;;;;;4952420;28;46448;-69
2023/12/15 00:32:17;;;;;;;24.00;11.27;;;6.20;71.60;;;;;;4957193;28;46544;-69
2023/12/15 00:34:43;;;;;;;20.40;11.03;;;6.30;71.50;;;;;;4955753;28;46534;-69
2023/12/15 00:37:10;;;;;;;20.30;11.30;;;6.30;71.50;;;;;;4952469;28;46471;-69
2023/12/15 00:39:36;;;;;;;17.37;10.30;;;6.30;72.70;;;;;;4955215;28;46609;-69
2023/12/15 00:42:02;;;;;;;17.73;10.13;;;6.30;71.60;;;;;;4955679;28;46374;-70
2023/12/15 00:44:27;;;;;;;19.83;10.40;;;6.20;71.70;;;;;;4952735;28;46581;-69
2023/12/15 00:46:53;;;;;;;19.17;10.80;;;6.20;71.90;;;;;;4953541;28;46698;-69
2023/12/15 00:49:19;;;;;;;18.90;9.80;;;6.10;71.80;;;;;;4952416;28;46609;-69
2023/12/15 00:51:44;;;;;;;18.57;9.63;;;6.10;72.00;;;;;;4953520;28;46462;-69
2023/12/15 00:54:10;;;;;;;17.40;9.57;;;6.10;72.20;;;;;;4955808;28;46702;-69
2023/12/15 00:56:35;;;;;;;18.73;8.40;;;6.10;72.10;;;;;;4953181;28;46456;-69
2023/12/15 00:59:04;;;;;;;17.87;9.70;;;6.10;72.10;;;;;;4953252;28;46338;-69
2023/12/15 01:01:29;;;;;;;15.60;8.97;;;6.00;72.00;;;;;;4952726;28;46846;-69
2023/12/15 01:03:55;;;;;;;18.73;9.37;;;6.00;72.00;;;;;;4957332;28;46745;-69
2023/12/15 01:06:21;;;;;;;14.70;7.73;;;6.00;72.10;;;;;;4953451;28;47091;-69
2023/12/15 01:08:46;;;;;;;17.60;9.90;;;6.00;71.90;;;;;;4958636;28;46449;-69
2023/12/15 01:11:12;;;;;;;11.97;7.30;;;6.00;72.10;;;;;;4951489;28;46471;-69
2023/12/15 01:13:37;;;;;;;14.17;6.73;;;6.00;71.90;;;;;;4953504;28;46585;-69
2023/12/15 01:16:06;;;;;;;10.10;5.93;;;5.90;72.00;;;;;;4950149;28;46640;-69
2023/12/15 01:18:32;;;;;;;11.20;6.30;;;5.90;72.10;;;;;;4949624;28;46437;-69
2023/12/15 01:20:58;;;;;;;8.80;5.50;;;5.90;72.10;;;;;;4954478;28;46421;-69
2023/12/15 01:23:23;;;;;;;9.90;6.00;;;5.80;72.20;;;;;;4951153;28;46382;-69
2023/12/15 01:25:49;;;;;;;8.87;5.23;;;5.70;72.20;;;;;;4951195;28;46462;-69
2023/12/15 01:28:14;;;;;;;9.83;5.20;;;5.70;72.40;;;;;;4949118;28;46394;-69
2023/12/15 01:30:40;;;;;;;9.50;5.37;;;5.60;72.30;;;;;;4957012;28;46385;-70
2023/12/15 01:33:05;;;;;;;8.07;4.53;;;5.60;72.60;;;;;;4950544;28;46362;-68
2023/12/15 01:35:31;;;;;;;9.30;5.10;;;5.50;72.50;;;;;;4947810;28;46008;-68
2023/12/15 01:37:56;;;;;;;7.93;4.07;;;5.50;72.50;;;;;;4950702;28;46497;-69
2023/12/15 01:40:22;;;;;;;12.37;3.73;;;5.40;72.60;;;;;;4948356;28;46401;-69
2023/12/15 01:42:47;;;;;;;5.70;3.70;;;5.50;72.40;;;;;;4955243;28;46481;-69
2023/12/15 01:45:13;;;;;;;6.50;3.93;;;5.40;72.00;;;;;;4949435;28;47180;-69
2023/12/15 01:47:39;;;;;;;6.80;3.90;;;5.40;71.90;;;;;;4951156;28;46212;-68
2023/12/15 01:50:08;;;;;;;7.37;4.30;;;5.30;71.90;;;;;;4949418;28;46508;-69
2023/12/15 01:52:33;;;;;;;10.53;4.30;;;5.00;72.60;;;;;;4948003;28;46577;-69
2023/12/15 01:54:59;;;;;;;10.10;4.90;;;5.00;73.30;;;;;;4949618;28;46461;-69
2023/12/15 01:57:24;;;;;;;6.53;4.43;;;5.00;72.90;;;;;;4949016;28;46553;-69
2023/12/15 01:59:50;;;;;;;7.40;4.60;;;5.10;72.70;;;;;;4952629;28;46408;-69
2023/12/15 02:02:16;;;;;;;7.87;4.87;;;5.10;72.30;;;;;;4949587;28;45846;-69
2023/12/15 02:04:42;;;;;;;10.40;4.80;;;5.20;72.10;;;;;;4949713;28;46761;-69
2023/12/15 02:07:08;;;;;;;7.97;5.17;;;5.20;71.80;;;;;;4952292;28;46385;-69
2023/12/15 02:09:33;;;;;;;8.63;5.53;;;5.20;71.60;;;;;;4951963;28;46408;-69
2023/12/15 02:11:59;;;;;;;8.03;4.73;;;5.20;71.50;;;;;;4959165;28;46554;-69
2023/12/15 02:14:25;;;;;;;7.23;4.53;;;5.20;72.50;;;;;;4952640;28;46508;-69
2023/12/15 02:16:50;;;;;;;9.57;4.83;;;5.20;71.40;;;;;;4950510;28;46460;-69
2023/12/15 02:19:16;;;;;;;7.90;5.07;;;5.30;71.20;;;;;;4951657;28;46106;-69
2023/12/15 02:21:42;;;;;;;8.87;5.60;;;5.40;70.90;;;;;;4952052;28;46571;-69
2023/12/15 02:24:07;;;;;;;7.03;4.37;;;5.40;71.00;;;;;;4952314;28;47010;-69
2023/12/15 02:26:33;;;;;;;13.07;5.63;;;5.40;70.90;;;;;;4950528;28;46686;-68
2023/12/15 02:28:58;;;;;;;10.70;5.47;;;5.40;70.80;;;;;;4953429;28;46465;-69
2023/12/15 02:31:24;;;;;;;7.53;4.70;;;5.40;70.70;;;;;;4954005;28;46651;-69
2023/12/15 02:33:50;;;;;;;7.43;5.03;;;5.40;70.70;;;;;;4951497;28;46515;-69
2023/12/15 02:36:20;;;;;;;7.33;4.57;;;5.50;70.70;;;;;;4949433;28;46455;-70
2023/12/15 02:38:46;;;;;;;6.93;4.73;;;5.50;70.70;;;;;;4952829;28;46685;-69
2023/12/15 02:41:12;;;;;;;7.23;5.20;;;5.50;70.80;;;;;;4953873;28;46454;-69
2023/12/15 02:43:38;;;;;;;7.97;5.20;;;5.50;70.80;;;;;;4952035;28;47072;-69
2023/12/15 02:46:05;;;;;;;10.23;5.70;;;5.50;70.60;;;;;;4951842;28;46417;-69
2023/12/15 02:48:30;;;;;;;9.17;5.60;;;5.60;70.60;;;;;;4950938;28;46619;-69
2023/12/15 02:50:56;;;;;;;6.87;4.83;;;5.50;70.70;;;;;;4951144;28;46374;-69
2023/12/15 02:53:21;;;;;;;7.13;4.50;;;5.50;70.60;;;;;;4950057;28;46419;-69
2023/12/15 02:55:47;;;;;;;5.80;4.50;;;5.50;70.70;;;;;;4950851;28;46594;-69
2023/12/15 02:58:12;;;;;;;8.93;5.70;;;5.50;70.70;;;;;;4954228;28;45790;-69
2023/12/15 03:00:38;;;;;;;9.67;6.07;;;5.50;70.60;;;;;;4954261;28;46634;-69
2023/12/15 03:03:04;;;;;;;10.03;6.33;;;5.50;70.80;;;;;;4951742;28;46531;-69
2023/12/15 03:05:30;;;;;;;10.47;6.33;;;5.30;71.00;;;;;;4953197;28;46793;-69
2023/12/15 03:07:55;;;;;;;12.47;7.13;;;5.20;71.40;;;;;;4951952;28;46560;-69
2023/12/15 03:10:21;;;;;;;11.17;6.23;;;5.20;71.50;;;;;;4953751;28;46734;-68
2023/12/15 03:12:47;;;;;;;9.63;7.20;;;5.10;71.70;;;;;;4951878;28;47896;-68
2023/12/15 03:15:12;;;;;;;10.40;6.50;;;5.00;71.60;;;;;;4948993;28;46468;-68
2023/12/15 03:17:38;;;;;;;10.00;6.77;;;5.00;71.70;;;;;;4950462;28;46288;-69
2023/12/15 03:20:06;;;;;;;12.77;7.20;;;5.00;71.50;;;;;;4951071;28;46488;-69
2023/12/15 03:22:32;;;;;;;11.13;6.60;;;5.00;71.60;;;;;;4951469;28;46325;-69
2023/12/15 03:24:58;;;;;;;14.40;6.83;;;5.00;71.50;;;;;;4951793;28;46350;-69
2023/12/15 03:27:23;;;;;;;9.00;5.50;;;5.00;71.50;;;;;;4951640;28;46329;-69
2023/12/15 03:29:49;;;;;;;9.90;5.60;;;5.00;71.20;;;;;;4954567;28;46307;-69
2023/12/15 03:32:15;;;;;;;11.23;6.23;;;4.90;71.10;;;;;;4949263;28;46641;-69
2023/12/15 03:34:40;;;;;;;11.57;6.70;;;4.90;71.20;;;;;;4951501;28;46530;-69
2023/12/15 03:37:06;;;;;;;14.80;7.07;;;4.90;71.10;;;;;;4948966;28;46384;-68
2023/12/15 03:39:32;;;;;;;11.63;7.07;;;4.90;71.10;;;;;;4949139;28;46534;-69
2023/12/15 03:41:57;;;;;;;10.63;6.67;;;4.80;71.00;;;;;;4945479;28;46902;-69
2023/12/15 03:44:23;;;;;;;11.70;6.90;;;4.70;71.20;;;;;;4949301;28;46378;-69
2023/12/15 03:46:48;;;;;;;10.60;6.63;;;4.70;71.20;;;;;;4956393;28;46718;-69
2023/12/15 03:49:14;;;;;;;12.20;6.63;;;4.70;71.10;;;;;;4953771;28;46418;-69
2023/12/15 03:51:39;;;;;;;10.37;5.63;;;4.70;71.20;;;;;;4952529;28;46905;-70
2023/12/15 03:54:05;;;;;;;10.00;5.43;;;4.60;71.00;;;;;;4956115;28;46747;-69
2023/12/15 03:56:31;;;;;;;9.93;5.43;;;4.60;71.00;;;;;;4954172;28;46334;-70
2023/12/15 03:58:57;;;;;;;10.27;6.37;;;4.60;71.00;;;;;;4953372;28;46531;-69
2023/12/15 04:01:22;;;;;;;12.17;5.80;;;4.70;70.90;;;;;;4956058;28;46405;-69
2023/12/15 04:03:48;;;;;;;11.63;6.83;;;4.60;70.70;;;;;;4956066;28;46457;-69
2023/12/15 04:06:14;;;;;;;10.43;6.00;;;4.60;70.70;;;;;;4957313;28;46671;-69
2023/12/15 04:08:42;;;;;;;12.87;6.17;;;4.60;70.70;;;;;;4952488;28;45963;-68
2023/12/15 04:11:07;;;;;;;12.07;6.47;;;4.60;70.60;;;;;;4951264;28;47460;-68
2023/12/15 04:13:33;;;;;;;11.07;6.13;;;4.60;70.50;;;;;;4953863;28;46497;-68
2023/12/15 04:15:58;;;;;;;14.67;6.47;;;4.60;70.60;;;;;;4953874;28;46378;-70
2023/12/15 04:18:24;;;;;;;14.10;6.90;;;4.60;70.70;;;;;;4955353;28;46559;-69
2023/12/15 04:20:49;;;;;;;12.30;6.23;;;4.60;70.60;;;;;;4952168;28;46433;-69
2023/12/15 04:23:15;;;;;;;11.93;6.27;;;4.60;70.60;;;;;;4952192;28;46346;-69
2023/12/15 04:25:41;;;;;;;11.77;6.83;;;4.50;70.50;;;;;;4953057;28;46005;-68
2023/12/15 04:28:06;;;;;;;10.40;5.93;;;4.60;70.80;;;;;;4955168;28;47263;-69
2023/12/15 04:30:33;;;;;;;11.13;7.27;;;4.50;70.70;;;;;;4955556;28;46485;-69
2023/12/15 04:32:58;;;;;;;12.13;6.13;;;4.50;70.80;;;;;;4953638;28;46532;-69
2023/12/15 04:35:24;;;;;;;13.23;8.10;;;4.50;70.70;;;;;;4950547;28;45816;-69
2023/12/15 04:37:49;;;;;;;11.53;6.30;;;4.50;70.70;;;;;;4950478;28;46803;-69
2023/12/15 04:40:15;;;;;;;12.30;7.57;;;4.50;70.80;;;;;;4950756;28;47284;-69
2023/12/15 04:42:41;;;;;;;13.47;6.43;;;4.40;71.00;;;;;;5009540;23;46676;-70
2023/12/15 04:45:08;;;;;;;15.77;8.23;;;4.40;70.90;;;;;;5004154;28;46557;-69
2023/12/15 04:47:35;;;;;;;14.63;8.30;;;4.40;70.90;;;;;;5002479;28;46491;-69
2023/12/15 04:50:01;;;;;;;13.43;8.03;;;4.40;71.00;;;;;;4996470;28;47901;-69
2023/12/15 04:52:27;;;;;;;14.20;7.97;;;4.40;70.90;;;;;;4970233;28;46773;-70
2023/12/15 04:54:53;;;;;;;16.47;8.10;;;4.40;70.90;;;;;;4985998;28;46393;-70
2023/12/15 04:57:19;;;;;;;14.30;7.70;;;4.30;70.90;;;;;;4977386;28;46356;-69
2023/12/15 04:59:44;;;;;;;14.63;7.77;;;4.30;71.00;;;;;;4972340;28;48168;-69
2023/12/15 05:02:10;;;;;;;17.00;7.40;;;4.30;71.10;;;;;;4969207;28;46486;-70
2023/12/15 05:04:36;;;;;;;15.97;8.07;;;4.30;71.30;;;;;;4968862;28;45875;-69
2023/12/15 05:07:02;;;;;;;12.90;7.27;;;4.30;71.30;;;;;;4967724;28;46507;-69
2023/12/15 05:09:28;;;;;;;12.50;7.17;;;4.30;71.10;;;;;;4970265;28;48133;-70
2023/12/15 05:11:54;;;;;;;13.97;7.53;;;4.30;71.10;;;;;;4971077;28;46372;-69
2023/12/15 05:14:20;;;;;;;10.50;6.30;;;4.30;71.20;;;;;;4977651;28;46898;-70
2023/12/15 05:16:46;;;;;;;11.93;7.53;;;4.20;71.10;;;;;;4975822;28;46501;-71
2023/12/15 05:19:11;;;;;;;16.17;7.90;;;4.20;71.10;;;;;;4973573;28;48168;-71
2023/12/15 05:21:37;;;;;;;16.60;6.70;;;4.20;71.20;;;;;;4966890;28;46489;-70
2023/12/15 05:24:03;;;;;;;12.57;7.60;;;4.20;71.10;;;;;;4976197;28;46477;-69
2023/12/15 05:26:29;;;;;;;13.23;7.10;;;4.20;71.10;;;;;;4968865;28;46464;-69
2023/12/15 05:28:54;;;;;;;15.53;7.50;;;4.20;71.20;;;;;;4976382;28;48254;-71
2023/12/15 05:31:20;;;;;;;11.23;6.77;;;4.20;71.30;;;;;;4970384;28;46808;-70
2023/12/15 05:33:46;;;;;;;14.40;7.80;;;4.20;71.20;;;;;;4973405;28;46416;-71
2023/12/15 05:36:22;;;;;;;12.67;6.53;;;4.20;71.20;;;;;;4969137;28;46619;-72
2023/12/15 05:38:49;;;;;;;14.30;7.00;;;4.20;71.20;;;;;;4965221;28;46854;-71
2023/12/15 05:41:14;;;;;;;14.90;7.63;;;4.20;71.30;;;;;;4966546;28;46650;-68
2023/12/15 05:43:40;;;;;;;13.70;7.43;;;4.20;71.40;;;;;;4976152;28;46463;-69
2023/12/15 05:46:06;;;;;;;13.83;6.50;;;4.20;71.40;;;;;;4972166;28;46439;-71
2023/12/15 05:48:33;;;;;;;15.90;6.70;;;4.20;71.30;;;;;;4967711;28;47795;-69
2023/12/15 05:50:58;;;;;;;12.88;6.22;;;4.20;71.40;;;;;;4977621;28;46486;-70
2023/12/15 05:53:24;;;;;;;12.63;7.40;;;4.20;71.50;;;;;;4967974;28;46451;-70
2023/12/15 05:55:52;;;;;;;14.07;8.57;;;4.20;71.20;;;;;;4970357;28;46440;-69
2023/12/15 05:58:17;;;;;;;14.77;7.20;;;4.20;71.10;;;;;;4967335;28;46472;-69
2023/12/15 06:00:43;;;;;;;13.70;7.17;;;4.30;71.10;;;;;;4974115;28;46501;-69
2023/12/15 06:03:09;;;;;;;13.43;7.33;;;4.20;71.10;;;;;;4970958;28;46420;-69
2023/12/15 06:05:34;;;;;;;13.33;7.60;;;4.20;71.30;;;;;;4972062;28;46448;-71
2023/12/15 06:08:01;;;;;;;13.40;7.50;;;4.20;71.30;;;;;;4974778;28;47364;-70
2023/12/15 06:10:27;;;;;;;13.45;7.03;;;4.20;71.50;;;;;;4967271;28;46552;-70
2023/12/15 06:12:53;;;;;;;15.20;7.00;;;4.20;71.50;;;;;;4967933;28;47140;-69
2023/12/15 06:15:19;;;;;;;12.33;6.70;;;4.20;71.60;;;;;;4971329;28;46398;-69
2023/12/15 06:17:44;;;;;;;12.93;6.77;;;4.20;71.70;;;;;;4975491;28;46528;-70
2023/12/15 06:20:13;;;;;;;13.37;6.50;;;4.20;71.80;;;;;;4967063;28;46499;-72
2023/12/15 06:22:39;;;;;;;11.52;6.65;;;4.10;71.60;;;;;;4975076;28;46502;-70
2023/12/15 06:25:05;;;;;;;11.80;6.80;;;4.10;71.90;;;;;;4976088;28;46434;-72
2023/12/15 06:27:34;;;;;;;10.68;5.90;;;4.10;71.90;;;;;;4968740;28;47768;-68
2023/12/15 06:29:59;;;;;;;11.77;5.60;;;4.10;72.00;;;;;;4975149;28;46440;-70
2023/12/15 06:32:25;;;;;;;8.87;5.80;;;4.10;72.20;;;;;;4970083;28;46439;-70
2023/12/15 06:34:51;;;;;;;10.30;5.77;;;4.00;72.00;;;;;;4967789;28;45879;-70
2023/12/15 06:37:17;;;;;;;8.40;5.37;;;4.00;72.30;;;;;;4974462;28;46542;-70
2023/12/15 06:39:45;;;;;;;10.70;5.83;;;4.00;72.40;;;;;;4973653;28;46684;-70
2023/12/15 06:42:11;;;;;;;7.50;4.57;;;3.90;72.30;;;;;;4972357;28;46496;-70
2023/12/15 06:44:37;;;;;;;7.80;4.70;;;3.90;72.20;;;;;;4969815;28;47273;-69
2023/12/15 06:47:03;;;;;;;7.63;4.50;;;3.90;72.60;;;;;;4974555;28;48110;-69
2023/12/15 06:49:32;;;;;;;9.98;4.95;;;3.90;72.10;;;;;;4970152;28;46667;-71
2023/12/15 06:51:58;;;;;;;6.53;4.15;;;3.90;71.70;;;;;;4971785;28;45922;-70
2023/12/15 06:54:24;;;;;;;6.53;4.20;;;3.90;71.50;;;;;;4972810;28;46739;-69
2023/12/15 06:56:50;;;;;;;7.80;4.37;;;3.90;71.30;;;;;;4975125;28;47846;-70
2023/12/15 06:59:15;;;;;;;7.57;4.50;;;3.90;71.10;;;;;;4973585;28;46511;-70
2023/12/15 07:01:41;;;;;;;7.27;4.90;;;3.90;71.10;;;;;;4969964;28;46663;-70
2023/12/15 07:04:07;;;;;;;8.90;5.27;;;3.90;70.90;;;;;;4968555;28;46744;-69
2023/12/15 07:06:32;;;;;;;6.60;4.53;;;3.90;70.80;;;;;;4969987;28;47914;-69
2023/12/15 07:08:58;;;;;;;9.87;5.80;;;4.00;71.00;;;;;;4968735;28;46620;-69
2023/12/15 07:11:24;;;;;;;8.13;5.30;;;4.00;70.90;;;;;;4969341;28;46507;-69
2023/12/15 07:13:50;;;;;;;9.13;5.67;;;4.00;70.70;;;;;;4967911;28;46728;-69
2023/12/15 07:16:16;;;;;;;11.27;5.30;;;4.10;70.60;;;;;;4969260;28;47227;-69
2023/12/15 07:18:42;;;;;;;9.43;5.25;;;4.10;70.50;;;;;;4967083;28;46416;-69
2023/12/15 07:21:09;;;;;;;9.50;5.40;;;4.10;70.40;;;;;;4974655;28;45924;-69
2023/12/15 07:23:34;;;;;;;10.57;5.50;;;4.20;70.40;;;;;;4972542;28;46439;-70
2023/12/15 07:26:01;;;;;;;9.23;5.07;;;4.20;70.20;;;;;;4972562;28;46428;-71
2023/12/15 07:28:26;;;;;;;8.35;5.28;;;4.20;70.20;;;;;;4973225;28;46704;-70
2023/12/15 07:30:52;;;;;;;8.47;5.60;;;4.30;70.10;;;;;;4978994;28;46474;-71
2023/12/15 07:33:18;;;;;;;8.97;5.50;;;4.30;70.00;;;;;;4972429;28;46266;-70
2023/12/15 07:35:43;;;;;;;9.53;6.00;;;4.20;70.10;;;;;;4976270;28;47846;-69
2023/12/15 07:38:10;;;;;;;8.17;5.10;;;4.30;70.10;;;;;;4972542;28;46216;-69
2023/12/15 07:40:35;;;;;;;10.10;5.60;;;4.30;70.10;;;;;;4970645;28;46554;-69
2023/12/15 07:43:02;;;;;;;9.43;5.27;;;4.30;70.20;;;;;;4969563;28;46428;-70
2023/12/15 07:45:27;;;;;;;10.43;6.37;;;4.30;70.10;;;;;;4975330;28;46549;-69
2023/12/15 07:47:54;;;;;;;9.87;6.10;;;4.20;70.20;;;;;;4984138;28;46489;-70
2023/12/15 07:50:20;;;;;;;10.05;5.88;;;4.20;70.30;;;;;;4978070;28;46250;-69
2023/12/15 07:52:46;;;;;;;9.87;5.50;;;4.30;70.40;;;;;;4976231;28;46344;-70
2023/12/15 07:55:12;;;;;;;8.77;5.30;;;4.40;70.10;;;;;;4971117;28;48058;-69
2023/12/15 07:57:39;;;;;;;9.53;5.93;;;4.40;70.00;;;;;;4972779;28;46450;-70
2023/12/15 08:00:09;;;;;;;10.25;6.72;;;4.50;69.70;;;;;;4977593;28;46669;-69
2023/12/15 08:02:35;;;;;;;10.00;5.53;;;4.60;69.40;;;;;;4957738;28;46489;-70
2023/12/15 08:05:01;;;;;;;7.80;4.50;;;4.70;69.30;;;;;;4968189;28;47864;-70
2023/12/15 08:07:26;;;;;;;10.73;5.70;;;4.70;69.00;;;;;;4967750;28;46512;-70
2023/12/15 08:09:52;;;;;;;8.87;5.53;;;4.80;70.10;;;;;;4971305;28;46431;-70
2023/12/15 08:12:18;;;;;;;10.47;6.00;;;4.80;68.80;;;;;;4977471;28;46603;-70
2023/12/15 08:14:43;;;;;;;9.20;5.87;;;4.90;68.60;;;;;;4973373;28;48076;-69
2023/12/15 08:17:09;;;;;;;13.07;5.67;;;5.00;68.40;;;;;;4977740;28;46148;-70
2023/12/15 08:19:35;;;;;;;8.80;5.83;;;5.00;68.60;;;;;;4972541;28;46424;-70
2023/12/15 08:22:01;;;;;;;15.80;8.20;;;5.00;68.70;;;;;;4977462;28;46829;-70
2023/12/15 08:24:27;;;;;;;9.80;6.30;;;5.00;68.50;;;;;;4972381;28;46423;-70
2023/12/15 08:26:53;;;;;;;8.53;5.60;;;5.10;68.30;;;;;;4970855;28;46236;-72
2023/12/15 08:29:20;;;;;;;8.40;5.47;;;5.10;68.40;;;;;;4970884;28;46520;-72
2023/12/15 08:31:46;;;;;;;12.13;6.20;;;5.10;68.40;;;;;;4970418;28;46252;-70
2023/12/15 08:34:12;;;;;;;10.70;7.17;;;5.20;68.20;;;;;;4975213;28;48629;-70
2023/12/15 08:36:37;;;;;;;8.97;5.90;;;5.30;67.90;;;;;;4978318;28;46300;-70
2023/12/15 08:39:04;;;;;;;9.07;5.67;;;5.30;67.80;;;;;;4968183;28;46467;-69
2023/12/15 08:41:30;;;;;;;9.50;6.03;;;5.40;68.10;;;;;;4970892;28;46543;-71
2023/12/15 08:43:56;;;;;;;11.60;6.77;;;5.40;68.00;;;;;;4977364;28;47905;-70
2023/12/15 08:46:22;;;;;;;9.77;5.40;;;5.40;67.90;;;;;;4974488;28;46489;-69
2023/12/15 08:48:49;;;;;;;10.23;6.20;;;5.30;68.20;;;;;;4971060;28;46484;-71
2023/12/15 08:51:16;;;;;;;9.77;5.93;;;5.10;68.40;;;;;;4968822;28;46498;-70
2023/12/15 08:53:42;;;;;;;8.73;5.60;;;5.10;68.70;;;;;;4968274;28;46966;-71
2023/12/15 08:56:08;;;;;;;9.37;6.00;;;5.10;68.70;;;;;;4970487;28;46435;-69
2023/12/15 08:58:33;;;;;;;9.20;5.50;;;5.00;68.60;;;;;;4972162;28;46712;-70
2023/12/15 09:00:59;;;;;;;10.07;5.33;;;4.90;68.70;;;;;;4972834;28;46500;-70
2023/12/15 09:03:24;;;;;;;9.77;5.60;;;4.90;68.90;;;;;;4974332;28;47917;-70
2023/12/15 09:05:50;;;;;;;8.40;5.20;;;4.90;68.90;;;;;;4974046;28;46538;-70
2023/12/15 09:08:16;;;;;;;8.03;4.77;;;5.00;68.80;;;;;;4969362;28;46596;-70
2023/12/15 09:10:43;;;;;;;7.70;5.23;;;5.00;68.40;;;;;;4970755;28;46404;-70
2023/12/15 09:13:13;;;;;;;9.13;5.97;;;5.00;68.20;;;;;;4967451;28;46648;-70
2023/12/15 09:15:39;;;;;;;7.60;4.63;;;5.00;68.00;;;;;;4965167;28;46415;-70
2023/12/15 09:18:04;;;;;;;9.10;5.20;;;5.00;68.00;;;;;;4973428;28;46468;-70
2023/12/15 09:20:30;;;;;;;7.60;5.10;;;5.00;67.90;;;;;;4971244;28;46825;-69
2023/12/15 09:22:55;;;;;;;9.23;5.17;;;5.10;67.90;;;;;;4974594;28;47928;-70
2023/12/15 09:25:21;;;;;;;8.17;5.37;;;5.20;67.70;;;;;;4973734;28;46450;-70
2023/12/15 09:27:47;;;;;;;11.30;5.63;;;5.30;67.60;;;;;;4969536;28;46464;-69
2023/12/15 09:30:13;;;;;;;8.47;5.50;;;5.30;67.30;;;;;;4968033;28;46492;-70
2023/12/15 09:32:39;;;;;;;9.00;5.70;;;5.30;67.10;;;;;;4966464;28;47236;-69
2023/12/15 09:35:06;;;;;;;8.63;5.50;;;5.40;67.20;;;;;;4966590;28;46476;-70
2023/12/15 09:37:32;;;;;;;11.80;5.33;;;5.40;66.90;;;;;;4969979;28;46481;-69
2023/12/15 09:39:57;;;;;;;7.60;5.00;;;5.50;66.80;;;;;;4971014;28;46751;-69
2023/12/15 09:42:23;;;;;;;7.43;5.00;;;5.60;66.80;;;;;;4971413;28;47876;-69
2023/12/15 09:44:50;;;;;;;8.57;5.40;;;5.70;66.50;;;;;;4969768;28;46386;-68
2023/12/15 09:47:20;;;;;;;8.30;5.50;;;5.80;66.20;;;;;;4966088;28;45854;-69
2023/12/15 09:49:52;;;;;;;8.80;5.47;;;5.90;66.10;;;;;;4975191;28;46396;-69
2023/12/15 09:52:18;;;;;;;6.70;4.77;;;6.00;66.00;;;;;;4972336;28;46707;-71
2023/12/15 09:54:44;;;;;;;7.33;4.80;;;6.10;65.80;;;;;;4972967;28;46634;-69
2023/12/15 09:57:12;;;;;;;8.03;5.17;;;6.20;65.80;;;;;;4967886;28;46219;-69
2023/12/15 09:59:42;;;;;;;9.60;5.30;;;6.20;65.70;;;;;;4970190;28;46345;-71
2023/12/15 10:02:08;;;;;;;7.87;5.67;;;6.30;65.40;;;;;;4969918;28;47336;-69
2023/12/15 10:04:33;;;;;;;9.17;4.73;;;6.50;65.30;;;;;;4970393;28;46470;-70
2023/12/15 10:06:59;;;;;;;7.10;4.67;;;6.50;65.10;;;;;;4969669;28;46458;-70
2023/12/15 10:09:25;;;;;;;8.23;5.00;;;6.60;64.80;;;;;;4971505;28;46104;-70
2023/12/15 10:11:50;;;;;;;6.37;4.40;;;6.70;64.70;;;;;;4970331;28;49090;-70
2023/12/15 10:14:19;;;;;;;8.00;4.90;;;6.80;64.60;;;;;;4974391;28;46364;-69
2023/12/15 10:16:46;;;;;;;7.07;4.50;;;6.90;64.50;;;;;;4968302;28;46249;-71
2023/12/15 10:19:11;;;;;;;7.60;4.67;;;6.90;64.60;;;;;;4967136;28;46488;-69
2023/12/15 10:21:38;;;;;;;10.23;4.90;;;6.90;64.60;;;;;;4968442;28;46426;-69
2023/12/15 10:24:21;;;;;;;8.67;5.07;;;6.80;64.50;;;;;;4974268;28;45915;-69
2023/12/15 10:26:47;;;;;;;6.73;4.73;;;6.80;64.50;;;;;;4974358;28;46454;-68
2023/12/15 10:29:14;;;;;;;6.73;4.80;;;6.80;64.60;;;;;;4974430;28;46618;-70
2023/12/15 10:31:41;;;;;;;7.60;4.77;;;6.70;64.40;;;;;;4965340;28;48975;-70
2023/12/15 10:34:07;;;;;;;9.33;5.37;;;6.60;64.60;;;;;;4969213;28;46496;-71
2023/12/15 10:36:34;;;;;;;6.20;4.47;;;6.80;64.50;;;;;;4968788;28;45946;-70
2023/12/15 10:39:02;;;;;;;6.50;4.77;;;6.80;64.20;;;;;;4970140;28;46440;-71
2023/12/15 10:41:32;;;;;;;7.57;4.57;;;6.70;64.20;;;;;;4964374;28;48264;-71
2023/12/15 10:44:00;;;;;;;8.67;5.60;;;6.80;64.20;;;;;;4967358;28;46558;-70
2023/12/15 10:46:27;;;;;;;9.30;6.00;;;6.90;65.10;;;;;;4967221;28;46532;-70
2023/12/15 10:48:54;;;;;;;7.37;5.03;;;7.10;63.70;;;;;;4973807;28;46678;-70
2023/12/15 10:51:20;;;;;;;8.57;4.80;;;7.20;63.30;;;;;;4971597;28;47621;-70
2023/12/15 10:53:48;;;;;;;11.20;5.70;;;7.30;63.10;;;;;;4967060;28;46715;-70
2023/12/15 10:56:15;;;;;;;6.27;4.37;;;7.30;63.10;;;;;;4969895;28;46224;-71
2023/12/15 10:58:41;;;;;;;8.27;5.13;;;7.20;63.00;;;;;;4971826;28;46419;-70
2023/12/15 11:01:09;;;;;;;8.10;4.97;;;7.20;63.00;;;;;;4972555;28;47971;-71
2023/12/15 11:03:35;;;;;;;7.40;4.50;;;7.30;63.10;;;;;;4974743;28;46513;-70
2023/12/15 11:06:01;;;;;;;7.27;5.03;;;7.30;63.10;;;;;;4969839;28;46424;-70
2023/12/15 11:08:27;;;;;;;7.63;4.70;;;7.30;63.10;;;;;;4968306;28;46738;-70
2023/12/15 11:10:53;;;;;;;7.90;5.57;;;7.40;63.20;;;;;;4974565;28;48000;-70
2023/12/15 11:13:47;;;;;;;8.13;5.20;;;7.40;63.10;;;;;;4972469;28;46446;-70
2023/12/15 11:16:12;;;;;;;8.73;5.00;;;7.40;62.70;;;;;;4971299;28;46535;-70
2023/12/15 11:18:41;;;;;;;7.37;5.30;;;7.40;63.20;;;;;;4971142;28;46452;-73
2023/12/15 11:21:11;;;;;;;7.10;4.33;;;7.40;62.80;;;;;;4974832;28;47863;-68
2023/12/15 11:24:00;;;;;;;8.00;5.23;;;7.50;62.10;;;;;;4967063;28;46540;-71
2023/12/15 11:26:28;;;;;;;8.40;5.60;;;7.40;62.50;;;;;;4970025;28;46439;-71
2023/12/15 11:29:01;;;;;;;7.57;4.70;;;7.40;62.90;;;;;;4974662;28;46508;-69
2023/12/15 11:31:28;;;;;;;6.40;4.80;;;7.40;62.40;;;;;;4972845;28;48899;-70
2023/12/15 11:33:55;;;;;;;8.67;5.40;;;7.20;61.70;;;;;;4968764;28;46831;-69
2023/12/15 11:36:20;;;;;;;8.03;5.17;;;7.00;62.10;;;;;;4966118;28;46517;-69
2023/12/15 11:38:48;;;;;;;7.93;4.63;;;6.90;62.20;;;;;;4984207;28;46641;-68
2023/12/15 11:41:17;;;;;;;9.13;5.30;;;6.90;62.70;;;;;;4972439;28;46588;-70
2023/12/15 11:43:43;;;;;;;8.30;5.40;;;6.90;62.10;;;;;;4968248;28;46511;-69
2023/12/15 11:46:12;;;;;;;9.83;5.50;;;6.90;61.90;;;;;;4963926;28;46448;-69
2023/12/15 11:48:39;;;;;;;8.30;4.80;;;6.90;61.60;;;;;;4964061;28;46830;-71
2023/12/15 11:51:05;;;;;;;7.83;5.57;;;7.00;61.70;;;;;;4963296;28;47869;-70
2023/12/15 11:53:32;;;;;;;8.67;5.17;;;7.00;61.50;;;;;;4966060;28;46464;-70
2023/12/15 11:56:01;;;;;;;8.80;5.77;;;7.00;61.60;;;;;;4971575;28;46840;-71
2023/12/15 11:58:27;;;;;;;9.30;5.17;;;7.00;61.60;;;;;;4980480;28;46392;-70
2023/12/15 12:00:52;;;;;;;9.10;5.47;;;7.10;61.30;;;;;;4967707;28;46597;-70
2023/12/15 12:03:19;;;;;;;8.77;5.63;;;7.00;61.30;;;;;;4968569;28;46358;-70
2023/12/15 12:05:47;;;;;;;8.70;5.80;;;7.00;61.00;;;;;;4965944;28;46363;-71
2023/12/15 12:08:14;;;;;;;7.53;5.10;;;7.10;61.50;;;;;;4967198;28;46478;-70
2023/12/15 12:10:41;;;;;;;8.10;6.10;;;7.20;61.30;;;;;;4969462;28;46465;-70
2023/12/15 12:13:07;;;;;;;7.63;5.10;;;7.30;61.20;;;;;;4968234;28;46468;-69
2023/12/15 12:15:47;;;;;;;9.83;5.57;;;7.20;60.90;;;;;;4971360;28;46531;-70
2023/12/15 12:18:13;;;;;;;7.70;5.20;;;7.20;60.80;;;;;;4974757;28;46506;-69
2023/12/15 12:20:41;;;;;;;7.07;4.83;;;7.10;60.80;;;;;;4969214;28;48214;-69
2023/12/15 12:23:07;;;;;;;8.63;5.63;;;7.10;62.00;;;;;;4974677;28;46444;-71
2023/12/15 12:25:32;;;;;;;8.10;4.60;;;7.00;61.20;;;;;;4969776;28;46503;-70
2023/12/15 12:27:58;;;;;;;7.70;4.80;;;7.10;60.90;;;;;;4971741;28;46613;-69
2023/12/15 12:30:24;;;;;;;10.60;5.03;;;7.10;61.10;;;;;;4969790;28;48801;-70
2023/12/15 12:32:50;;;;;;;9.03;5.63;;;7.30;61.00;;;;;;4965673;28;46420;-70
2023/12/15 12:35:15;;;;;;;7.37;4.93;;;7.30;60.80;;;;;;4969348;28;46515;-68
2023/12/15 12:37:41;;;;;;;10.50;5.60;;;7.30;60.50;;;;;;4971744;28;46838;-69
2023/12/15 12:40:08;;;;;;;7.27;4.87;;;7.20;61.00;;;;;;4970852;28;48007;-71
2023/12/15 12:42:33;;;;;;;6.53;4.87;;;7.10;60.90;;;;;;4977238;28;46496;-69
2023/12/15 12:44:59;;;;;;;8.20;5.40;;;7.00;61.00;;;;;;4985328;28;46715;-69
2023/12/15 12:47:28;;;;;;;10.10;5.20;;;7.00;61.10;;;;;;4968666;28;46645;-70